sensor_id;sensor_type;location;lat;lon;timestamp;P1;durP1;ratioP1;P2;durP2;ratioP2
76053;SDS011;64752;48.870;9.082;2023-04-19T00:02:03;19.20;;;14.03;;
76053;SDS011;64752;48.870;9.082;2023-04-19T00:04:28;19.65;;;14.23;;
76053;SDS011;64752;48.870;9.082;2023-04-19T00:06:54;19.08;;;14.93;;
76053;SDS011;64752;48.870;9.082;2023-04-19T00:09:19;20.33;;;14.50;;
76053;SDS011;64752;48.870;9.082;2023-04-19T00:11:44;18.80;;;13.73;;
76053;SDS011;64752;48.870;9.082;2023-04-19T00:14:09;21.30;;;14.77;;
76053;SDS011;64752;48.870;9.082;2023-04-19T00:16:35;19.45;;;14.50;;
76053;SDS011;64752;48.870;9.082;2023-04-19T00:19:00;19.60;;;14.52;;
76053;SDS011;64752;48.870;9.082;2023-04-19T00:21:26;21.42;;;14.88;;
76053;SDS011;64752;48.870;9.082;2023-04-19T00:23:51;22.48;;;14.52;;
76053;SDS011;64752;48.870;9.082;2023-04-19T00:26:18;20.52;;;14.85;;
76053;SDS011;64752;48.870;9.082;2023-04-19T00:28:43;19.45;;;14.73;;
76053;SDS011;64752;48.870;9.082;2023-04-19T00:31:08;19.83;;;15.35;;
76053;SDS011;64752;48.870;9.082;2023-04-19T00:33:33;21.63;;;15.68;;
76053;SDS011;64752;48.870;9.082;2023-04-19T00:35:58;20.00;;;14.93;;
76053;SDS011;64752;48.870;9.082;2023-04-19T00:38:24;23.88;;;15.48;;
76053;SDS011;64752;48.870;9.082;2023-04-19T00:40:49;22.35;;;15.65;;
76053;SDS011;64752;48.870;9.082;2023-04-19T00:43:17;20.50;;;15.45;;
76053;SDS011;64752;48.870;9.082;2023-04-19T00:45:43;23.65;;;15.52;;
76053;SDS011;64752;48.870;9.082;2023-04-19T00:48:09;22.15;;;15.93;;
76053;SDS011;64752;48.870;9.082;2023-04-19T00:50:34;20.92;;;15.80;;
76053;SDS011;64752;48.870;9.082;2023-04-19T00:53:00;21.83;;;16.02;;
76053;SDS011;64752;48.870;9.082;2023-04-19T00:55:26;19.57;;;14.80;;
76053;SDS011;64752;48.870;9.082;2023-04-19T00:57:52;20.77;;;15.13;;
76053;SDS011;64752;48.870;9.082;2023-04-19T01:00:17;23.10;;;15.80;;
76053;SDS011;64752;48.870;9.082;2023-04-19T01:02:44;22.73;;;15.40;;
76053;SDS011;64752;48.870;9.082;2023-04-19T01:05:09;21.17;;;15.77;;
76053;SDS011;64752;48.870;9.082;2023-04-19T01:07:34;23.55;;;16.55;;
76053;SDS011;64752;48.870;9.082;2023-04-19T01:09:59;19.90;;;15.25;;
76053;SDS011;64752;48.870;9.082;2023-04-19T01:12:25;21.25;;;15.25;;
76053;SDS011;64752;48.870;9.082;2023-04-19T01:14:50;21.73;;;15.90;;
76053;SDS011;64752;48.870;9.082;2023-04-19T01:17:15;23.08;;;16.02;;
76053;SDS011;64752;48.870;9.082;2023-04-19T01:19:41;21.52;;;15.57;;
76053;SDS011;64752;48.870;9.082;2023-04-19T01:22:07;24.90;;;16.30;;
76053;SDS011;64752;48.870;9.082;2023-04-19T01:24:33;22.93;;;16.03;;
76053;SDS011;64752;48.870;9.082;2023-04-19T01:26:58;23.60;;;16.80;;
76053;SDS011;64752;48.870;9.082;2023-04-19T01:29:23;21.02;;;16.02;;
76053;SDS011;64752;48.870;9.082;2023-04-19T01:31:49;24.80;;;16.73;;
76053;SDS011;64752;48.870;9.082;2023-04-19T01:34:20;23.08;;;16.58;;
76053;SDS011;64752;48.870;9.082;2023-04-19T01:36:47;21.05;;;15.20;;
76053;SDS011;64752;48.870;9.082;2023-04-19T01:39:12;23.67;;;16.33;;
76053;SDS011;64752;48.870;9.082;2023-04-19T01:41:37;20.60;;;15.90;;
76053;SDS011;64752;48.870;9.082;2023-04-19T01:44:02;21.70;;;16.23;;
76053;SDS011;64752;48.870;9.082;2023-04-19T01:46:28;24.40;;;15.70;;
76053;SDS011;64752;48.870;9.082;2023-04-19T01:48:53;22.75;;;15.48;;
76053;SDS011;64752;48.870;9.082;2023-04-19T01:51:18;25.13;;;16.70;;
76053;SDS011;64752;48.870;9.082;2023-04-19T01:56:10;18.77;;;15.07;;
76053;SDS011;64752;48.870;9.082;2023-04-19T01:58:36;24.38;;;16.67;;
76053;SDS011;64752;48.870;9.082;2023-04-19T02:01:01;23.48;;;16.15;;
76053;SDS011;64752;48.870;9.082;2023-04-19T02:03:26;20.83;;;15.43;;
76053;SDS011;64752;48.870;9.082;2023-04-19T02:05:51;24.13;;;17.00;;
76053;SDS011;64752;48.870;9.082;2023-04-19T02:08:16;21.80;;;16.10;;
76053;SDS011;64752;48.870;9.082;2023-04-19T02:10:41;22.27;;;16.20;;
76053;SDS011;64752;48.870;9.082;2023-04-19T02:13:07;23.00;;;16.33;;
76053;SDS011;64752;48.870;9.082;2023-04-19T02:15:32;21.20;;;15.50;;
76053;SDS011;64752;48.870;9.082;2023-04-19T02:17:57;20.25;;;15.07;;
76053;SDS011;64752;48.870;9.082;2023-04-19T02:20:24;24.05;;;17.02;;
76053;SDS011;64752;48.870;9.082;2023-04-19T02:22:49;21.98;;;16.15;;
76053;SDS011;64752;48.870;9.082;2023-04-19T02:25:14;24.48;;;16.17;;
76053;SDS011;64752;48.870;9.082;2023-04-19T02:27:40;21.63;;;15.38;;
76053;SDS011;64752;48.870;9.082;2023-04-19T02:30:06;21.40;;;16.00;;
76053;SDS011;64752;48.870;9.082;2023-04-19T02:32:32;20.70;;;15.02;;
76053;SDS011;64752;48.870;9.082;2023-04-19T02:34:57;20.45;;;15.10;;
76053;SDS011;64752;48.870;9.082;2023-04-19T02:37:22;23.10;;;15.93;;
76053;SDS011;64752;48.870;9.082;2023-04-19T02:39:47;23.92;;;16.83;;
76053;SDS011;64752;48.870;9.082;2023-04-19T02:42:13;21.65;;;16.17;;
76053;SDS011;64752;48.870;9.082;2023-04-19T02:44:38;21.05;;;15.95;;
76053;SDS011;64752;48.870;9.082;2023-04-19T02:47:03;22.75;;;16.42;;
76053;SDS011;64752;48.870;9.082;2023-04-19T02:49:29;25.15;;;16.50;;
76053;SDS011;64752;48.870;9.082;2023-04-19T02:51:57;24.80;;;17.50;;
76053;SDS011;64752;48.870;9.082;2023-04-19T02:54:22;24.63;;;17.95;;
76053;SDS011;64752;48.870;9.082;2023-04-19T02:56:47;23.67;;;16.83;;
76053;SDS011;64752;48.870;9.082;2023-04-19T02:59:12;25.50;;;18.13;;
76053;SDS011;64752;48.870;9.082;2023-04-19T03:01:37;21.23;;;16.17;;
76053;SDS011;64752;48.870;9.082;2023-04-19T03:04:03;22.88;;;17.15;;
76053;SDS011;64752;48.870;9.082;2023-04-19T03:06:30;22.63;;;17.50;;
76053;SDS011;64752;48.870;9.082;2023-04-19T03:08:55;22.98;;;16.48;;
76053;SDS011;64752;48.870;9.082;2023-04-19T03:11:21;24.17;;;17.77;;
76053;SDS011;64752;48.870;9.082;2023-04-19T03:13:46;23.03;;;17.17;;
76053;SDS011;64752;48.870;9.082;2023-04-19T03:16:11;23.00;;;17.58;;
76053;SDS011;64752;48.870;9.082;2023-04-19T03:18:37;24.05;;;18.13;;
76053;SDS011;64752;48.870;9.082;2023-04-19T03:21:02;23.63;;;17.35;;
76053;SDS011;64752;48.870;9.082;2023-04-19T03:23:27;25.48;;;18.98;;
76053;SDS011;64752;48.870;9.082;2023-04-19T03:25:53;24.25;;;16.95;;
76053;SDS011;64752;48.870;9.082;2023-04-19T03:28:18;23.52;;;17.88;;
76053;SDS011;64752;48.870;9.082;2023-04-19T03:30:43;23.40;;;18.25;;
76053;SDS011;64752;48.870;9.082;2023-04-19T03:33:08;25.67;;;18.48;;
76053;SDS011;64752;48.870;9.082;2023-04-19T03:35:34;22.88;;;18.25;;
76053;SDS011;64752;48.870;9.082;2023-04-19T03:37:59;25.38;;;17.88;;
76053;SDS011;64752;48.870;9.082;2023-04-19T03:40:25;23.60;;;17.52;;
76053;SDS011;64752;48.870;9.082;2023-04-19T03:42:50;23.75;;;18.27;;
76053;SDS011;64752;48.870;9.082;2023-04-19T03:45:15;23.75;;;18.48;;
76053;SDS011;64752;48.870;9.082;2023-04-19T03:47:40;24.70;;;18.23;;
76053;SDS011;64752;48.870;9.082;2023-04-19T03:50:06;25.55;;;18.20;;
76053;SDS011;64752;48.870;9.082;2023-04-19T03:52:31;23.95;;;18.23;;
76053;SDS011;64752;48.870;9.082;2023-04-19T03:54:57;24.13;;;17.67;;
76053;SDS011;64752;48.870;9.082;2023-04-19T03:57:22;27.05;;;17.73;;
76053;SDS011;64752;48.870;9.082;2023-04-19T03:59:47;26.92;;;18.50;;
76053;SDS011;64752;48.870;9.082;2023-04-19T04:02:12;26.15;;;19.38;;
76053;SDS011;64752;48.870;9.082;2023-04-19T04:04:37;24.00;;;17.63;;
76053;SDS011;64752;48.870;9.082;2023-04-19T04:07:03;24.40;;;17.60;;
76053;SDS011;64752;48.870;9.082;2023-04-19T04:09:28;24.83;;;18.40;;
76053;SDS011;64752;48.870;9.082;2023-04-19T04:11:53;25.45;;;18.63;;
76053;SDS011;64752;48.870;9.082;2023-04-19T04:14:18;26.05;;;19.23;;
76053;SDS011;64752;48.870;9.082;2023-04-19T04:16:44;25.20;;;18.75;;
76053;SDS011;64752;48.870;9.082;2023-04-19T04:19:09;27.43;;;18.93;;
76053;SDS011;64752;48.870;9.082;2023-04-19T04:21:34;28.00;;;19.40;;
76053;SDS011;64752;48.870;9.082;2023-04-19T04:23:59;26.88;;;20.30;;
76053;SDS011;64752;48.870;9.082;2023-04-19T04:26:27;26.30;;;19.48;;
76053;SDS011;64752;48.870;9.082;2023-04-19T04:28:57;29.42;;;20.45;;
76053;SDS011;64752;48.870;9.082;2023-04-19T04:31:23;28.10;;;20.52;;
76053;SDS011;64752;48.870;9.082;2023-04-19T04:33:48;27.10;;;19.60;;
76053;SDS011;64752;48.870;9.082;2023-04-19T04:36:13;27.48;;;19.60;;
76053;SDS011;64752;48.870;9.082;2023-04-19T04:38:39;27.52;;;20.08;;
76053;SDS011;64752;48.870;9.082;2023-04-19T04:41:05;29.20;;;19.83;;
76053;SDS011;64752;48.870;9.082;2023-04-19T04:43:30;26.40;;;19.63;;
76053;SDS011;64752;48.870;9.082;2023-04-19T04:45:56;25.13;;;18.02;;
76053;SDS011;64752;48.870;9.082;2023-04-19T04:48:21;26.55;;;19.58;;
76053;SDS011;64752;48.870;9.082;2023-04-19T04:50:47;29.52;;;19.58;;
76053;SDS011;64752;48.870;9.082;2023-04-19T04:53:12;26.20;;;18.58;;
76053;SDS011;64752;48.870;9.082;2023-04-19T04:55:37;26.63;;;19.42;;
76053;SDS011;64752;48.870;9.082;2023-04-19T04:58:02;25.25;;;20.45;;
76053;SDS011;64752;48.870;9.082;2023-04-19T05:00:29;25.98;;;18.77;;
76053;SDS011;64752;48.870;9.082;2023-04-19T05:02:55;24.50;;;17.75;;
76053;SDS011;64752;48.870;9.082;2023-04-19T05:05:20;22.95;;;17.88;;
76053;SDS011;64752;48.870;9.082;2023-04-19T05:07:45;22.60;;;17.35;;
76053;SDS011;64752;48.870;9.082;2023-04-19T05:10:10;26.73;;;17.92;;
76053;SDS011;64752;48.870;9.082;2023-04-19T05:12:36;28.02;;;16.75;;
76053;SDS011;64752;48.870;9.082;2023-04-19T05:15:01;22.23;;;17.38;;
76053;SDS011;64752;48.870;9.082;2023-04-19T05:17:27;22.52;;;16.88;;
76053;SDS011;64752;48.870;9.082;2023-04-19T05:19:52;21.70;;;17.05;;
76053;SDS011;64752;48.870;9.082;2023-04-19T05:22:17;22.58;;;17.25;;
76053;SDS011;64752;48.870;9.082;2023-04-19T05:24:42;21.95;;;16.15;;
76053;SDS011;64752;48.870;9.082;2023-04-19T05:27:07;21.85;;;16.05;;
76053;SDS011;64752;48.870;9.082;2023-04-19T05:29:33;23.55;;;17.05;;
76053;SDS011;64752;48.870;9.082;2023-04-19T05:31:58;21.40;;;16.77;;
76053;SDS011;64752;48.870;9.082;2023-04-19T05:34:24;19.75;;;15.13;;
76053;SDS011;64752;48.870;9.082;2023-04-19T05:36:49;23.02;;;16.48;;
76053;SDS011;64752;48.870;9.082;2023-04-19T05:39:14;22.27;;;15.90;;
76053;SDS011;64752;48.870;9.082;2023-04-19T05:41:39;22.60;;;16.42;;
76053;SDS011;64752;48.870;9.082;2023-04-19T05:44:05;20.83;;;15.60;;
76053;SDS011;64752;48.870;9.082;2023-04-19T05:46:30;22.00;;;16.10;;
76053;SDS011;64752;48.870;9.082;2023-04-19T05:48:55;20.98;;;15.77;;
76053;SDS011;64752;48.870;9.082;2023-04-19T05:51:21;19.63;;;14.93;;
76053;SDS011;64752;48.870;9.082;2023-04-19T05:53:46;19.80;;;14.43;;
76053;SDS011;64752;48.870;9.082;2023-04-19T05:56:11;20.92;;;14.43;;
76053;SDS011;64752;48.870;9.082;2023-04-19T05:58:36;20.47;;;15.30;;
76053;SDS011;64752;48.870;9.082;2023-04-19T06:01:02;20.00;;;14.35;;
76053;SDS011;64752;48.870;9.082;2023-04-19T06:03:28;19.30;;;14.75;;
76053;SDS011;64752;48.870;9.082;2023-04-19T06:05:53;18.73;;;14.05;;
76053;SDS011;64752;48.870;9.082;2023-04-19T06:08:18;20.65;;;14.05;;
76053;SDS011;64752;48.870;9.082;2023-04-19T06:10:44;22.08;;;13.52;;
76053;SDS011;64752;48.870;9.082;2023-04-19T06:13:11;17.85;;;13.65;;
76053;SDS011;64752;48.870;9.082;2023-04-19T06:15:37;19.80;;;13.20;;
76053;SDS011;64752;48.870;9.082;2023-04-19T06:20:31;16.48;;;12.90;;
76053;SDS011;64752;48.870;9.082;2023-04-19T06:22:56;22.92;;;13.35;;
76053;SDS011;64752;48.870;9.082;2023-04-19T06:25:21;17.00;;;12.10;;
76053;SDS011;64752;48.870;9.082;2023-04-19T06:27:46;15.87;;;11.83;;
76053;SDS011;64752;48.870;9.082;2023-04-19T06:30:12;15.52;;;11.60;;
76053;SDS011;64752;48.870;9.082;2023-04-19T06:32:37;16.17;;;11.75;;
76053;SDS011;64752;48.870;9.082;2023-04-19T06:35:02;14.63;;;11.43;;
76053;SDS011;64752;48.870;9.082;2023-04-19T06:37:28;16.30;;;12.43;;
76053;SDS011;64752;48.870;9.082;2023-04-19T06:39:53;15.77;;;12.45;;
76053;SDS011;64752;48.870;9.082;2023-04-19T06:42:19;15.95;;;11.88;;
76053;SDS011;64752;48.870;9.082;2023-04-19T06:44:44;19.33;;;12.83;;
76053;SDS011;64752;48.870;9.082;2023-04-19T06:47:10;16.65;;;12.90;;
76053;SDS011;64752;48.870;9.082;2023-04-19T06:49:35;18.67;;;12.80;;
76053;SDS011;64752;48.870;9.082;2023-04-19T06:52:00;17.50;;;12.87;;
76053;SDS011;64752;48.870;9.082;2023-04-19T06:54:25;17.95;;;12.75;;
76053;SDS011;64752;48.870;9.082;2023-04-19T06:56:51;17.77;;;12.70;;
76053;SDS011;64752;48.870;9.082;2023-04-19T06:59:17;16.67;;;11.38;;
76053;SDS011;64752;48.870;9.082;2023-04-19T07:01:43;14.23;;;11.27;;
76053;SDS011;64752;48.870;9.082;2023-04-19T07:04:08;13.97;;;10.70;;
76053;SDS011;64752;48.870;9.082;2023-04-19T07:06:34;13.63;;;11.33;;
76053;SDS011;64752;48.870;9.082;2023-04-19T07:08:59;14.63;;;11.27;;
76053;SDS011;64752;48.870;9.082;2023-04-19T07:11:25;14.30;;;10.93;;
76053;SDS011;64752;48.870;9.082;2023-04-19T07:13:50;13.53;;;10.17;;
76053;SDS011;64752;48.870;9.082;2023-04-19T07:16:15;12.67;;;9.97;;
76053;SDS011;64752;48.870;9.082;2023-04-19T07:18:41;12.83;;;10.33;;
76053;SDS011;64752;48.870;9.082;2023-04-19T07:21:06;13.30;;;10.20;;
76053;SDS011;64752;48.870;9.082;2023-04-19T07:23:31;12.77;;;9.50;;
76053;SDS011;64752;48.870;9.082;2023-04-19T07:25:56;13.10;;;9.67;;
76053;SDS011;64752;48.870;9.082;2023-04-19T07:28:22;12.47;;;9.37;;
76053;SDS011;64752;48.870;9.082;2023-04-19T07:30:47;13.67;;;9.67;;
76053;SDS011;64752;48.870;9.082;2023-04-19T07:33:12;14.20;;;9.53;;
76053;SDS011;64752;48.870;9.082;2023-04-19T07:35:37;12.47;;;10.17;;
76053;SDS011;64752;48.870;9.082;2023-04-19T07:38:03;11.53;;;9.33;;
76053;SDS011;64752;48.870;9.082;2023-04-19T07:40:28;14.43;;;10.27;;
76053;SDS011;64752;48.870;9.082;2023-04-19T07:42:54;13.13;;;10.20;;
76053;SDS011;64752;48.870;9.082;2023-04-19T07:45:19;13.30;;;9.30;;
76053;SDS011;64752;48.870;9.082;2023-04-19T07:47:44;13.63;;;9.73;;
76053;SDS011;64752;48.870;9.082;2023-04-19T07:50:10;12.63;;;9.23;;
76053;SDS011;64752;48.870;9.082;2023-04-19T07:52:36;14.30;;;8.95;;
76053;SDS011;64752;48.870;9.082;2023-04-19T07:55:01;12.53;;;8.97;;
76053;SDS011;64752;48.870;9.082;2023-04-19T07:57:27;12.40;;;8.53;;
76053;SDS011;64752;48.870;9.082;2023-04-19T07:59:52;12.67;;;9.33;;
76053;SDS011;64752;48.870;9.082;2023-04-19T08:02:21;11.70;;;8.65;;
76053;SDS011;64752;48.870;9.082;2023-04-19T08:04:47;11.63;;;9.13;;
76053;SDS011;64752;48.870;9.082;2023-04-19T08:07:13;10.98;;;9.02;;
76053;SDS011;64752;48.870;9.082;2023-04-19T08:09:38;10.60;;;8.50;;
76053;SDS011;64752;48.870;9.082;2023-04-19T08:12:03;12.80;;;9.03;;
76053;SDS011;64752;48.870;9.082;2023-04-19T08:14:29;13.30;;;8.77;;
76053;SDS011;64752;48.870;9.082;2023-04-19T08:16:54;13.90;;;9.57;;
76053;SDS011;64752;48.870;9.082;2023-04-19T08:19:19;11.73;;;9.10;;
76053;SDS011;64752;48.870;9.082;2023-04-19T08:21:44;12.83;;;9.20;;
76053;SDS011;64752;48.870;9.082;2023-04-19T08:24:10;10.53;;;9.40;;
76053;SDS011;64752;48.870;9.082;2023-04-19T08:26:35;14.97;;;9.43;;
76053;SDS011;64752;48.870;9.082;2023-04-19T08:29:00;12.80;;;9.40;;
76053;SDS011;64752;48.870;9.082;2023-04-19T08:31:25;11.87;;;9.20;;
76053;SDS011;64752;48.870;9.082;2023-04-19T08:33:51;15.80;;;10.10;;
76053;SDS011;64752;48.870;9.082;2023-04-19T08:36:16;15.83;;;9.90;;
76053;SDS011;64752;48.870;9.082;2023-04-19T08:38:41;12.53;;;9.10;;
76053;SDS011;64752;48.870;9.082;2023-04-19T08:41:07;14.55;;;8.95;;
76053;SDS011;64752;48.870;9.082;2023-04-19T08:43:35;13.77;;;9.65;;
76053;SDS011;64752;48.870;9.082;2023-04-19T08:46:01;12.40;;;9.70;;
76053;SDS011;64752;48.870;9.082;2023-04-19T08:48:26;12.87;;;9.73;;
76053;SDS011;64752;48.870;9.082;2023-04-19T08:50:52;13.07;;;9.63;;
76053;SDS011;64752;48.870;9.082;2023-04-19T08:53:18;12.25;;;9.57;;
76053;SDS011;64752;48.870;9.082;2023-04-19T08:55:43;11.75;;;9.55;;
76053;SDS011;64752;48.870;9.082;2023-04-19T08:58:10;13.18;;;9.70;;
76053;SDS011;64752;48.870;9.082;2023-04-19T09:00:37;15.53;;;10.67;;
76053;SDS011;64752;48.870;9.082;2023-04-19T09:03:03;13.68;;;10.65;;
76053;SDS011;64752;48.870;9.082;2023-04-19T09:05:30;13.40;;;10.18;;
76053;SDS011;64752;48.870;9.082;2023-04-19T09:08:03;13.77;;;10.30;;
76053;SDS011;64752;48.870;9.082;2023-04-19T09:10:44;12.30;;;9.50;;
76053;SDS011;64752;48.870;9.082;2023-04-19T09:13:16;12.27;;;9.60;;
76053;SDS011;64752;48.870;9.082;2023-04-19T09:15:42;12.47;;;9.53;;
76053;SDS011;64752;48.870;9.082;2023-04-19T09:18:08;12.50;;;9.63;;
76053;SDS011;64752;48.870;9.082;2023-04-19T09:20:43;12.57;;;9.13;;
76053;SDS011;64752;48.870;9.082;2023-04-19T09:23:17;13.18;;;9.30;;
76053;SDS011;64752;48.870;9.082;2023-04-19T09:25:53;10.73;;;7.75;;
76053;SDS011;64752;48.870;9.082;2023-04-19T09:28:19;12.73;;;8.93;;
76053;SDS011;64752;48.870;9.082;2023-04-19T09:30:44;12.40;;;9.27;;
76053;SDS011;64752;48.870;9.082;2023-04-19T09:33:10;10.05;;;8.15;;
76053;SDS011;64752;48.870;9.082;2023-04-19T09:35:43;13.33;;;9.20;;
76053;SDS011;64752;48.870;9.082;2023-04-19T09:38:10;12.68;;;7.82;;
76053;SDS011;64752;48.870;9.082;2023-04-19T09:40:35;16.23;;;9.13;;
76053;SDS011;64752;48.870;9.082;2023-04-19T09:43:01;11.50;;;8.93;;
76053;SDS011;64752;48.870;9.082;2023-04-19T09:45:27;10.63;;;8.52;;
76053;SDS011;64752;48.870;9.082;2023-04-19T09:48:04;13.32;;;8.23;;
76053;SDS011;64752;48.870;9.082;2023-04-19T09:50:29;12.40;;;8.77;;
76053;SDS011;64752;48.870;9.082;2023-04-19T09:52:54;11.20;;;8.43;;
76053;SDS011;64752;48.870;9.082;2023-04-19T09:55:20;11.03;;;8.53;;
76053;SDS011;64752;48.870;9.082;2023-04-19T09:57:46;10.63;;;8.05;;
76053;SDS011;64752;48.870;9.082;2023-04-19T10:00:12;8.77;;;7.80;;
76053;SDS011;64752;48.870;9.082;2023-04-19T10:02:39;10.40;;;7.97;;
76053;SDS011;64752;48.870;9.082;2023-04-19T10:05:05;10.23;;;7.23;;
76053;SDS011;64752;48.870;9.082;2023-04-19T10:07:32;10.82;;;7.53;;
76053;SDS011;64752;48.870;9.082;2023-04-19T10:09:58;10.83;;;7.90;;
76053;SDS011;64752;48.870;9.082;2023-04-19T10:12:24;9.85;;;7.78;;
76053;SDS011;64752;48.870;9.082;2023-04-19T10:14:55;9.93;;;7.75;;
76053;SDS011;64752;48.870;9.082;2023-04-19T10:17:21;11.32;;;8.23;;
76053;SDS011;64752;48.870;9.082;2023-04-19T10:19:47;10.47;;;7.50;;
76053;SDS011;64752;48.870;9.082;2023-04-19T10:22:13;11.77;;;8.45;;
76053;SDS011;64752;48.870;9.082;2023-04-19T10:24:38;10.40;;;7.83;;
76053;SDS011;64752;48.870;9.082;2023-04-19T10:32:13;11.15;;;8.18;;
76053;SDS011;64752;48.870;9.082;2023-04-19T10:34:38;10.43;;;8.67;;
76053;SDS011;64752;48.870;9.082;2023-04-19T10:37:04;10.27;;;8.30;;
76053;SDS011;64752;48.870;9.082;2023-04-19T10:39:40;10.35;;;8.32;;
76053;SDS011;64752;48.870;9.082;2023-04-19T10:42:06;11.25;;;8.45;;
76053;SDS011;64752;48.870;9.082;2023-04-19T10:44:31;14.17;;;8.53;;
76053;SDS011;64752;48.870;9.082;2023-04-19T10:46:57;9.67;;;7.50;;
76053;SDS011;64752;48.870;9.082;2023-04-19T10:49:23;13.45;;;7.82;;
76053;SDS011;64752;48.870;9.082;2023-04-19T10:51:48;11.10;;;7.83;;
76053;SDS011;64752;48.870;9.082;2023-04-19T10:54:28;10.38;;;8.00;;
76053;SDS011;64752;48.870;9.082;2023-04-19T10:57:02;9.55;;;7.68;;
76053;SDS011;64752;48.870;9.082;2023-04-19T10:59:29;11.73;;;8.43;;
76053;SDS011;64752;48.870;9.082;2023-04-19T11:01:55;10.93;;;7.97;;
76053;SDS011;64752;48.870;9.082;2023-04-19T11:07:02;13.65;;;9.05;;
76053;SDS011;64752;48.870;9.082;2023-04-19T11:09:31;10.98;;;8.68;;
76053;SDS011;64752;48.870;9.082;2023-04-19T11:12:17;16.00;;;10.10;;
76053;SDS011;64752;48.870;9.082;2023-04-19T11:19:42;13.35;;;10.88;;
76053;SDS011;64752;48.870;9.082;2023-04-19T11:22:09;15.65;;;11.38;;
76053;SDS011;64752;48.870;9.082;2023-04-19T11:24:35;14.25;;;11.60;;
76053;SDS011;64752;48.870;9.082;2023-04-19T11:27:00;13.88;;;11.73;;
76053;SDS011;64752;48.870;9.082;2023-04-19T11:29:31;17.77;;;12.18;;
76053;SDS011;64752;48.870;9.082;2023-04-19T11:31:58;15.70;;;12.45;;
76053;SDS011;64752;48.870;9.082;2023-04-19T11:34:25;17.85;;;12.82;;
76053;SDS011;64752;48.870;9.082;2023-04-19T11:36:50;18.83;;;13.27;;
76053;SDS011;64752;48.870;9.082;2023-04-19T11:39:15;20.23;;;14.93;;
76053;SDS011;64752;48.870;9.082;2023-04-19T11:41:41;17.73;;;14.87;;
76053;SDS011;64752;48.870;9.082;2023-04-19T11:44:16;20.77;;;16.38;;
76053;SDS011;64752;48.870;9.082;2023-04-19T11:46:41;23.23;;;15.98;;
76053;SDS011;64752;48.870;9.082;2023-04-19T11:49:06;19.83;;;16.05;;
76053;SDS011;64752;48.870;9.082;2023-04-19T11:51:32;21.48;;;17.17;;
76053;SDS011;64752;48.870;9.082;2023-04-19T11:53:57;20.42;;;17.42;;
76053;SDS011;64752;48.870;9.082;2023-04-19T11:56:22;22.40;;;16.35;;
76053;SDS011;64752;48.870;9.082;2023-04-19T11:58:47;21.10;;;15.87;;
76053;SDS011;64752;48.870;9.082;2023-04-19T12:01:14;21.40;;;16.80;;
76053;SDS011;64752;48.870;9.082;2023-04-19T12:06:09;22.43;;;17.27;;
76053;SDS011;64752;48.870;9.082;2023-04-19T12:08:35;19.73;;;16.50;;
76053;SDS011;64752;48.870;9.082;2023-04-19T12:11:01;23.67;;;17.35;;
76053;SDS011;64752;48.870;9.082;2023-04-19T12:13:30;22.13;;;17.23;;
76053;SDS011;64752;48.870;9.082;2023-04-19T12:15:55;25.58;;;18.13;;
76053;SDS011;64752;48.870;9.082;2023-04-19T12:18:21;19.85;;;14.82;;
76053;SDS011;64752;48.870;9.082;2023-04-19T12:20:46;22.90;;;15.93;;
76053;SDS011;64752;48.870;9.082;2023-04-19T12:23:12;22.05;;;16.33;;
76053;SDS011;64752;48.870;9.082;2023-04-19T12:25:38;23.65;;;16.52;;
76053;SDS011;64752;48.870;9.082;2023-04-19T12:28:03;20.70;;;15.70;;
76053;SDS011;64752;48.870;9.082;2023-04-19T12:30:29;22.73;;;16.13;;
76053;SDS011;64752;48.870;9.082;2023-04-19T12:32:54;20.90;;;15.27;;
76053;SDS011;64752;48.870;9.082;2023-04-19T12:35:26;20.88;;;15.00;;
76053;SDS011;64752;48.870;9.082;2023-04-19T12:37:54;20.48;;;14.60;;
76053;SDS011;64752;48.870;9.082;2023-04-19T12:40:20;19.10;;;13.80;;
76053;SDS011;64752;48.870;9.082;2023-04-19T12:42:45;21.02;;;13.98;;
76053;SDS011;64752;48.870;9.082;2023-04-19T12:45:11;16.70;;;12.20;;
76053;SDS011;64752;48.870;9.082;2023-04-19T12:47:36;16.80;;;12.05;;
76053;SDS011;64752;48.870;9.082;2023-04-19T12:50:02;15.45;;;12.50;;
76053;SDS011;64752;48.870;9.082;2023-04-19T12:52:27;19.08;;;12.60;;
76053;SDS011;64752;48.870;9.082;2023-04-19T12:54:52;16.00;;;12.07;;
76053;SDS011;64752;48.870;9.082;2023-04-19T12:57:17;15.68;;;11.70;;
76053;SDS011;64752;48.870;9.082;2023-04-19T12:59:43;17.85;;;11.18;;
76053;SDS011;64752;48.870;9.082;2023-04-19T13:02:08;15.37;;;11.33;;
76053;SDS011;64752;48.870;9.082;2023-04-19T13:04:33;13.63;;;10.63;;
76053;SDS011;64752;48.870;9.082;2023-04-19T13:06:58;14.77;;;11.13;;
76053;SDS011;64752;48.870;9.082;2023-04-19T13:09:25;14.48;;;10.40;;
76053;SDS011;64752;48.870;9.082;2023-04-19T13:11:50;15.63;;;11.30;;
76053;SDS011;64752;48.870;9.082;2023-04-19T13:14:15;13.93;;;11.07;;
76053;SDS011;64752;48.870;9.082;2023-04-19T13:16:41;14.73;;;11.25;;
76053;SDS011;64752;48.870;9.082;2023-04-19T13:19:06;19.83;;;11.93;;
76053;SDS011;64752;48.870;9.082;2023-04-19T13:21:31;15.45;;;11.30;;
76053;SDS011;64752;48.870;9.082;2023-04-19T13:23:57;16.33;;;12.50;;
76053;SDS011;64752;48.870;9.082;2023-04-19T13:26:22;19.63;;;11.40;;
76053;SDS011;64752;48.870;9.082;2023-04-19T13:28:47;18.67;;;11.83;;
76053;SDS011;64752;48.870;9.082;2023-04-19T13:31:13;15.80;;;11.93;;
76053;SDS011;64752;48.870;9.082;2023-04-19T13:33:38;16.83;;;11.57;;
76053;SDS011;64752;48.870;9.082;2023-04-19T13:36:03;15.90;;;11.57;;
76053;SDS011;64752;48.870;9.082;2023-04-19T13:38:29;15.88;;;11.23;;
76053;SDS011;64752;48.870;9.082;2023-04-19T13:40:54;16.83;;;11.43;;
76053;SDS011;64752;48.870;9.082;2023-04-19T13:43:20;17.17;;;10.98;;
76053;SDS011;64752;48.870;9.082;2023-04-19T13:45:45;16.90;;;10.18;;
76053;SDS011;64752;48.870;9.082;2023-04-19T13:48:10;13.95;;;10.65;;
76053;SDS011;64752;48.870;9.082;2023-04-19T13:50:35;14.23;;;10.35;;
76053;SDS011;64752;48.870;9.082;2023-04-19T13:53:01;13.88;;;10.40;;
76053;SDS011;64752;48.870;9.082;2023-04-19T13:55:26;13.25;;;9.63;;
76053;SDS011;64752;48.870;9.082;2023-04-19T13:57:51;21.27;;;10.67;;
76053;SDS011;64752;48.870;9.082;2023-04-19T14:00:16;14.25;;;10.25;;
76053;SDS011;64752;48.870;9.082;2023-04-19T14:02:42;13.70;;;9.90;;
76053;SDS011;64752;48.870;9.082;2023-04-19T14:05:08;12.77;;;9.48;;
76053;SDS011;64752;48.870;9.082;2023-04-19T14:07:34;13.45;;;8.02;;
76053;SDS011;64752;48.870;9.082;2023-04-19T14:09:59;12.18;;;9.20;;
76053;SDS011;64752;48.870;9.082;2023-04-19T14:12:25;17.00;;;8.73;;
76053;SDS011;64752;48.870;9.082;2023-04-19T14:14:50;11.37;;;8.57;;
76053;SDS011;64752;48.870;9.082;2023-04-19T14:17:15;12.82;;;8.30;;
76053;SDS011;64752;48.870;9.082;2023-04-19T14:19:40;13.13;;;8.67;;
76053;SDS011;64752;48.870;9.082;2023-04-19T14:22:06;10.52;;;7.88;;
76053;SDS011;64752;48.870;9.082;2023-04-19T14:24:31;10.50;;;8.33;;
76053;SDS011;64752;48.870;9.082;2023-04-19T14:26:56;14.80;;;8.77;;
76053;SDS011;64752;48.870;9.082;2023-04-19T14:29:22;12.23;;;8.05;;
76053;SDS011;64752;48.870;9.082;2023-04-19T14:31:47;11.80;;;8.20;;
76053;SDS011;64752;48.870;9.082;2023-04-19T14:34:12;10.70;;;7.93;;
76053;SDS011;64752;48.870;9.082;2023-04-19T14:36:37;11.07;;;7.10;;
76053;SDS011;64752;48.870;9.082;2023-04-19T14:39:02;11.83;;;7.53;;